createdAt,value
2019-01-24T00:02:23.790Z,53.73
2019-01-24T00:04:54.311Z,47.13
2019-01-24T00:07:24.846Z,54.13
2019-01-24T00:09:55.349Z,63.37
2019-01-24T00:12:25.859Z,55.77
2019-01-24T00:14:56.339Z,56.20
2019-01-24T00:17:26.841Z,58.33
2019-01-24T00:19:57.312Z,51.60
2019-01-24T00:22:29.350Z,58.63
2019-01-24T00:24:59.831Z,47.27
2019-01-24T00:27:30.327Z,47.17
2019-01-24T00:30:00.839Z,38.80
2019-01-24T00:32:31.332Z,40.17
2019-01-24T00:35:01.846Z,37.93
2019-01-24T00:37:32.320Z,41.50
2019-01-24T00:40:02.882Z,45.03
2019-01-24T00:42:33.427Z,36.50
2019-01-24T00:45:05.787Z,46.23
2019-01-24T00:47:36.268Z,34.07
2019-01-24T00:50:11.071Z,46.00
2019-01-24T00:52:41.614Z,49.67
2019-01-24T00:55:15.271Z,42.00
2019-01-24T00:57:45.757Z,45.23
2019-01-24T01:00:37.184Z,52.40
2019-01-24T01:03:07.722Z,48.37
2019-01-24T01:05:38.237Z,37.43
2019-01-24T01:08:08.771Z,45.50
2019-01-24T01:10:40.322Z,44.23
2019-01-24T01:13:10.777Z,47.30
2019-01-24T01:15:41.276Z,38.40
2019-01-24T01:18:11.831Z,39.87
2019-01-24T01:20:42.335Z,42.83
2019-01-24T01:23:12.883Z,49.63
2019-01-24T01:25:43.450Z,42.83
2019-01-24T01:28:14.096Z,44.70
2019-01-24T01:30:44.670Z,44.20
2019-01-24T01:33:15.151Z,40.60
2019-01-24T01:35:45.805Z,56.20
2019-01-24T01:38:17.480Z,64.37
2019-01-24T01:40:48.061Z,43.90
2019-01-24T01:43:18.535Z,58.50
2019-01-24T01:45:49.036Z,50.50
2019-01-24T01:48:19.540Z,49.97
2019-01-24T01:50:50.007Z,53.40
2019-01-24T01:53:20.518Z,48.73
2019-01-24T01:55:51.462Z,55.60
2019-01-24T01:58:21.975Z,47.53
2019-01-24T02:00:52.447Z,48.33
2019-01-24T02:03:22.950Z,59.70
2019-01-24T02:05:53.466Z,48.53
2019-01-24T02:08:24.001Z,49.37
2019-01-24T02:10:54.505Z,44.43
2019-01-24T02:13:24.978Z,57.93
2019-01-24T02:15:55.478Z,54.03
2019-01-24T02:18:26.284Z,42.37
2019-01-24T02:20:56.796Z,45.13
2019-01-24T02:23:27.288Z,49.27
2019-01-24T02:25:57.833Z,47.27
2019-01-24T02:28:29.481Z,47.50
2019-01-24T02:30:59.966Z,52.07
2019-01-24T02:33:30.453Z,50.80
2019-01-24T02:36:00.941Z,42.80
2019-01-24T02:38:31.429Z,47.37
2019-01-24T02:41:01.902Z,52.70
2019-01-24T02:43:33.974Z,47.30
2019-01-24T02:46:04.516Z,46.33
2019-01-24T02:48:35.031Z,47.67
2019-01-24T02:51:05.642Z,47.33
2019-01-24T02:53:36.205Z,51.93
2019-01-24T02:56:07.014Z,52.77
2019-01-24T02:58:37.524Z,46.73
2019-01-24T03:01:08.137Z,53.60
2019-01-24T03:03:38.643Z,43.70
2019-01-24T03:06:09.171Z,47.23
2019-01-24T03:08:39.647Z,47.60
2019-01-24T03:11:10.218Z,49.37
2019-01-24T03:13:40.760Z,52.63
2019-01-24T03:16:11.283Z,43.87
2019-01-24T03:18:41.753Z,47.17
2019-01-24T03:21:12.248Z,41.73
2019-01-24T03:23:43.334Z,49.70
2019-01-24T03:26:13.846Z,49.50
2019-01-24T03:28:44.313Z,51.13
2019-01-24T03:31:14.884Z,51.93
2019-01-24T03:33:45.370Z,49.07
2019-01-24T03:36:15.872Z,49.83
2019-01-24T03:38:46.348Z,48.47
2019-01-24T03:41:16.924Z,44.50
2019-01-24T03:43:47.396Z,50.00
2019-01-24T03:46:17.909Z,44.70
2019-01-24T03:48:48.384Z,49.63
2019-01-24T03:51:18.896Z,45.10
2019-01-24T03:53:49.371Z,46.20
2019-01-24T03:56:19.883Z,39.90
2019-01-24T03:58:50.734Z,50.20
2019-01-24T04:01:21.251Z,44.13
2019-01-24T04:03:51.962Z,53.60
2019-01-24T04:06:22.462Z,42.97
2019-01-24T04:08:52.968Z,47.40
2019-01-24T04:11:23.442Z,47.93
2019-01-24T04:13:53.947Z,41.80
2019-01-24T04:16:24.427Z,48.43
2019-01-24T04:18:54.925Z,53.50
2019-01-24T04:21:25.430Z,40.60
2019-01-24T04:23:55.913Z,42.33
2019-01-24T04:26:26.413Z,58.07
2019-01-24T04:28:56.896Z,52.03
2019-01-24T04:31:27.395Z,42.30
2019-01-24T04:33:57.982Z,42.40
2019-01-24T04:36:28.481Z,47.13
2019-01-24T04:38:58.977Z,48.87
2019-01-24T04:41:29.451Z,57.37
2019-01-24T04:43:59.950Z,53.40
2019-01-24T04:46:30.425Z,49.93
2019-01-24T04:49:00.942Z,58.20
2019-01-24T04:51:31.442Z,63.67
2019-01-24T04:54:01.903Z,50.03
2019-01-24T04:56:32.408Z,45.40
2019-01-24T04:59:02.879Z,42.73
2019-01-24T05:01:33.442Z,52.10
2019-01-24T05:04:03.926Z,45.13
2019-01-24T05:06:34.423Z,58.67
2019-01-24T05:09:07.770Z,52.87
2019-01-24T05:11:38.270Z,41.53
2019-01-24T05:14:08.815Z,49.83
2019-01-24T05:16:39.345Z,45.37
2019-01-24T05:19:09.811Z,42.70
2019-01-24T05:21:40.322Z,49.57
2019-01-24T05:24:10.831Z,39.67
2019-01-24T05:26:41.298Z,52.87
2019-01-24T05:29:11.800Z,54.70
2019-01-24T05:31:42.271Z,45.50
2019-01-24T05:34:12.785Z,39.23
2019-01-24T05:36:43.253Z,53.73
2019-01-24T05:39:13.773Z,52.53
2019-01-24T05:41:44.244Z,59.87
2019-01-24T05:44:14.742Z,51.20
2019-01-24T05:46:45.315Z,49.23
2019-01-24T05:49:15.883Z,53.67
2019-01-24T05:51:46.398Z,60.53
2019-01-24T05:54:16.872Z,48.67
2019-01-24T05:56:47.385Z,55.97
2019-01-24T05:59:17.861Z,54.50
2019-01-24T06:01:49.127Z,50.47
2019-01-24T06:04:19.606Z,51.47
2019-01-24T06:06:50.207Z,55.90
2019-01-24T06:09:20.677Z,52.60
2019-01-24T06:11:51.192Z,46.67
2019-01-24T06:14:21.713Z,57.83
2019-01-24T06:16:52.192Z,72.73
2019-01-24T06:19:22.698Z,70.87
2019-01-24T06:21:53.172Z,65.67
2019-01-24T06:24:23.704Z,46.97
2019-01-24T06:26:54.177Z,47.40
2019-01-24T06:29:24.770Z,62.23
2019-01-24T06:31:55.236Z,62.43
2019-01-24T06:34:25.760Z,82.37
2019-01-24T06:36:56.238Z,80.83
2019-01-24T06:39:26.750Z,62.37
2019-01-24T06:41:57.247Z,49.23
2019-01-24T06:44:27.758Z,58.43
2019-01-24T06:46:58.279Z,59.87
2019-01-24T06:49:28.792Z,57.27
2019-01-24T06:51:59.259Z,103.07
2019-01-24T06:54:29.763Z,118.70
2019-01-24T06:57:00.358Z,69.10
2019-01-24T06:59:30.843Z,61.43
2019-01-24T07:02:01.349Z,64.93
2019-01-24T07:04:32.391Z,62.93
2019-01-24T07:07:02.896Z,56.97
2019-01-24T07:09:33.370Z,61.43
2019-01-24T07:12:03.954Z,64.27
2019-01-24T07:14:34.462Z,77.13
2019-01-24T07:17:04.936Z,54.63
2019-01-24T07:19:35.427Z,58.37
2019-01-24T07:22:05.972Z,60.60
2019-01-24T07:24:36.474Z,65.97
2019-01-24T07:27:08.113Z,65.10
2019-01-24T07:29:38.620Z,62.03
2019-01-24T07:32:09.124Z,73.57
2019-01-24T07:34:39.615Z,60.53
2019-01-24T07:37:10.124Z,209.07
2019-01-24T07:39:40.615Z,106.00
2019-01-24T07:42:13.646Z,69.20
2019-01-24T07:44:44.120Z,67.40
2019-01-24T07:47:14.654Z,68.80
2019-01-24T07:49:45.123Z,54.40
2019-01-24T07:52:15.643Z,55.10
2019-01-24T07:54:46.126Z,77.53
2019-01-24T07:57:16.621Z,58.57
2019-01-24T07:59:47.128Z,55.17
2019-01-24T08:02:17.627Z,69.40
2019-01-24T08:04:48.137Z,50.57
2019-01-24T08:07:18.631Z,52.57
2019-01-24T08:09:49.139Z,61.17
2019-01-24T08:12:19.714Z,63.53
2019-01-24T08:14:50.192Z,59.70
2019-01-24T08:17:20.705Z,77.87
2019-01-24T08:19:51.194Z,60.83
2019-01-24T08:22:21.703Z,63.43
2019-01-24T08:24:52.214Z,62.17
2019-01-24T08:27:22.690Z,71.13
2019-01-24T08:29:53.207Z,73.67
2019-01-24T08:32:23.679Z,70.50
2019-01-24T08:34:54.189Z,73.30
2019-01-24T08:37:24.695Z,70.17
2019-01-24T08:39:55.168Z,72.80
2019-01-24T08:42:25.672Z,145.47
2019-01-24T08:44:56.153Z,100.00
2019-01-24T08:47:26.692Z,76.37
2019-01-24T08:49:57.162Z,73.70
2019-01-24T08:52:27.677Z,67.93
2019-01-24T08:54:58.160Z,69.73
2019-01-24T08:57:28.655Z,76.97
2019-01-24T09:00:00.268Z,79.10
2019-01-24T09:02:30.799Z,69.83
2019-01-24T09:05:02.809Z,61.60
2019-01-24T09:07:33.329Z,75.03
2019-01-24T09:10:05.555Z,76.00
2019-01-24T09:12:36.027Z,73.93
2019-01-24T09:15:11.244Z,70.00
2019-01-24T09:17:41.752Z,69.63
2019-01-24T09:20:21.014Z,60.57
2019-01-24T09:22:55.469Z,68.10
2019-01-24T09:25:23.760Z,75.30
2019-01-24T09:27:54.335Z,70.07
2019-01-24T09:30:45.702Z,66.00
2019-01-24T09:33:16.836Z,79.53
2019-01-24T09:35:47.409Z,66.40
2019-01-24T09:38:17.925Z,67.13
2019-01-24T09:40:48.875Z,50.30
2019-01-24T09:43:19.444Z,51.83
2019-01-24T09:45:50.046Z,52.70
2019-01-24T09:48:20.525Z,54.30
2019-01-24T09:50:51.092Z,57.20
2019-01-24T09:53:22.063Z,62.33
2019-01-24T09:55:52.533Z,59.03
2019-01-24T09:58:23.033Z,62.83
2019-01-24T10:00:53.538Z,59.53
2019-01-24T10:03:24.018Z,54.97
2019-01-24T10:05:54.535Z,51.80
2019-01-24T10:08:25.034Z,50.90
2019-01-24T10:10:55.501Z,71.13
2019-01-24T10:13:26.154Z,49.90
2019-01-24T10:15:56.599Z,51.20
2019-01-24T10:18:27.238Z,52.60
2019-01-24T10:20:57.706Z,56.47
2019-01-24T10:23:28.263Z,56.03
2019-01-24T10:25:58.713Z,54.70
2019-01-24T10:28:29.275Z,56.07
2019-01-24T10:30:59.747Z,57.33
2019-01-24T10:33:30.264Z,54.30
2019-01-24T10:36:02.526Z,55.47
2019-01-24T10:38:33.014Z,56.10
2019-01-24T10:41:03.495Z,61.27
2019-01-24T10:43:34.049Z,62.03
2019-01-24T10:46:04.673Z,66.40
2019-01-24T10:48:36.764Z,63.17
2019-01-24T10:51:07.257Z,60.57
2019-01-24T10:53:37.716Z,67.17
2019-01-24T10:56:08.311Z,64.27
2019-01-24T10:58:38.777Z,56.23
2019-01-24T11:01:09.402Z,61.53
2019-01-24T11:03:39.924Z,63.50
2019-01-24T11:06:10.409Z,69.40
2019-01-24T11:08:40.971Z,63.73
2019-01-24T11:11:11.444Z,57.90
2019-01-24T11:13:42.003Z,60.53
2019-01-24T11:16:13.999Z,104.83
2019-01-24T11:18:44.508Z,177.60
2019-01-24T11:21:14.969Z,72.83
2019-01-24T11:23:45.448Z,74.40
2019-01-24T11:26:15.956Z,66.80
2019-01-24T11:28:46.416Z,65.60
2019-01-24T11:31:16.965Z,63.53
2019-01-24T11:33:47.466Z,73.80
2019-01-24T11:36:17.999Z,80.27
2019-01-24T11:38:48.486Z,66.77
2019-01-24T11:41:18.981Z,82.03
2019-01-24T11:43:50.748Z,71.40
2019-01-24T11:46:21.249Z,83.70
2019-01-24T11:48:51.708Z,79.80
2019-01-24T11:51:22.213Z,77.87
2019-01-24T11:53:53.204Z,156.60
2019-01-24T11:56:23.944Z,74.57
2019-01-24T11:58:54.415Z,58.53
2019-01-24T12:01:24.895Z,58.93
2019-01-24T12:03:55.377Z,58.47
2019-01-24T12:06:25.865Z,72.03
2019-01-24T12:08:56.422Z,74.50
2019-01-24T12:11:26.947Z,56.73
2019-01-24T12:13:57.439Z,117.33
2019-01-24T12:16:27.935Z,77.00
2019-01-24T12:18:58.397Z,74.00
2019-01-24T12:21:28.889Z,77.07
2019-01-24T12:23:59.366Z,75.93
2019-01-24T12:26:29.828Z,75.60
2019-01-24T12:29:00.329Z,70.53
2019-01-24T12:31:30.844Z,67.70
2019-01-24T12:34:01.297Z,68.33
2019-01-24T12:36:31.798Z,77.63
2019-01-24T12:39:02.314Z,74.50
2019-01-24T12:41:32.768Z,84.03
2019-01-24T12:44:03.277Z,57.53
2019-01-24T12:46:33.770Z,65.57
2019-01-24T12:49:04.241Z,87.30
2019-01-24T12:51:34.764Z,65.93
2019-01-24T12:54:05.998Z,68.00
2019-01-24T12:56:36.490Z,64.27
2019-01-24T12:59:07.070Z,58.00
2019-01-24T13:01:37.623Z,54.57
2019-01-24T13:04:08.084Z,42.60
2019-01-24T13:06:38.572Z,34.07
2019-01-24T13:09:09.185Z,95.83
2019-01-24T13:11:39.697Z,44.00
2019-01-24T13:14:10.271Z,37.57
2019-01-24T13:16:40.755Z,34.90
2019-01-24T13:19:11.249Z,34.63
2019-01-24T13:21:41.740Z,31.87
2019-01-24T13:24:12.242Z,33.03
2019-01-24T13:26:44.330Z,37.17
2019-01-24T13:29:14.825Z,30.87
2019-01-24T13:31:45.347Z,32.33
2019-01-24T13:34:15.795Z,31.60
2019-01-24T13:36:46.302Z,35.50
2019-01-24T13:39:16.768Z,36.97
2019-01-24T13:41:48.800Z,35.97
2019-01-24T13:44:19.351Z,32.87
2019-01-24T13:46:49.834Z,37.90
2019-01-24T13:49:20.329Z,62.30
2019-01-24T13:51:50.786Z,39.17
2019-01-24T13:54:21.283Z,37.10
2019-01-24T13:56:51.741Z,36.90
2019-01-24T13:59:22.258Z,31.57
2019-01-24T14:01:52.710Z,33.57
2019-01-24T14:04:23.279Z,38.43
2019-01-24T14:06:53.779Z,36.57
2019-01-24T14:09:24.244Z,37.40
2019-01-24T14:11:54.746Z,33.80
2019-01-24T14:14:25.249Z,36.60
2019-01-24T14:16:55.703Z,38.47
2019-01-24T14:19:26.262Z,35.73
2019-01-24T14:21:56.778Z,37.17
2019-01-24T14:24:27.283Z,35.03
2019-01-24T14:26:57.803Z,35.57
2019-01-24T14:29:28.350Z,34.10
2019-01-24T14:31:58.818Z,34.83
2019-01-24T14:34:29.311Z,37.20
2019-01-24T14:36:59.815Z,35.87
2019-01-24T14:39:30.280Z,41.00
2019-01-24T14:42:00.767Z,36.70
2019-01-24T14:44:32.908Z,39.80
2019-01-24T14:47:03.415Z,32.93
2019-01-24T14:49:33.882Z,37.77
2019-01-24T14:52:06.201Z,42.00
2019-01-24T14:54:38.165Z,36.80
2019-01-24T14:57:08.630Z,37.60
2019-01-24T14:59:39.126Z,43.07
2019-01-24T15:02:09.663Z,42.33
2019-01-24T15:04:40.166Z,42.60
2019-01-24T15:07:11.572Z,36.97
2019-01-24T15:09:42.069Z,46.53
2019-01-24T15:12:12.579Z,36.47
2019-01-24T15:14:44.146Z,37.97
2019-01-24T15:17:14.659Z,44.10
2019-01-24T15:19:45.131Z,40.90
2019-01-24T15:22:15.645Z,61.53
2019-01-24T15:24:46.119Z,42.13
2019-01-24T15:27:16.625Z,33.27
2019-01-24T15:29:47.154Z,40.50
2019-01-24T15:32:17.648Z,38.03
2019-01-24T15:34:48.120Z,38.50
2019-01-24T15:37:19.252Z,43.50
2019-01-24T15:39:49.765Z,40.90
2019-01-24T15:42:20.263Z,40.07
2019-01-24T15:44:53.527Z,40.20
2019-01-24T15:47:24.030Z,39.87
2019-01-24T15:49:54.499Z,33.00
2019-01-24T15:52:25.006Z,38.37
2019-01-24T15:54:55.475Z,42.27
2019-01-24T15:57:25.972Z,42.53
2019-01-24T15:59:56.484Z,44.43
2019-01-24T16:02:27.296Z,52.60
2019-01-24T16:04:57.807Z,41.00
2019-01-24T16:07:28.282Z,41.60
2019-01-24T16:09:58.781Z,38.37
2019-01-24T16:12:29.252Z,39.33
2019-01-24T16:14:59.751Z,40.70
2019-01-24T16:17:30.248Z,63.93
2019-01-24T16:20:00.781Z,53.73
2019-01-24T16:22:31.260Z,47.20
2019-01-24T16:25:01.773Z,34.63
2019-01-24T16:27:32.293Z,39.13
2019-01-24T16:30:02.800Z,38.57
2019-01-24T16:32:33.370Z,43.00
2019-01-24T16:35:04.208Z,40.37
2019-01-24T16:37:34.707Z,37.00
2019-01-24T16:40:09.418Z,34.87
2019-01-24T16:42:39.916Z,37.50
2019-01-24T16:45:15.170Z,40.90
2019-01-24T16:47:45.928Z,44.60
2019-01-24T16:50:19.430Z,39.33
2019-01-24T16:52:50.062Z,39.20
2019-01-24T16:55:21.201Z,40.40
2019-01-24T16:57:53.091Z,39.07
2019-01-24T17:00:30.847Z,35.70
2019-01-24T17:03:01.312Z,35.77
2019-01-24T17:05:31.969Z,41.80
2019-01-24T17:08:02.575Z,37.80
2019-01-24T17:10:33.068Z,36.10
2019-01-24T17:13:03.707Z,50.17
2019-01-24T17:15:34.248Z,76.13
2019-01-24T17:18:05.518Z,36.87
2019-01-24T17:20:36.151Z,33.67
2019-01-24T17:23:06.932Z,36.03
2019-01-24T17:25:37.530Z,33.80
2019-01-24T17:28:08.150Z,32.13
2019-01-24T17:30:38.735Z,34.10
2019-01-24T17:33:09.345Z,39.37
2019-01-24T17:35:41.317Z,35.47
2019-01-24T17:38:13.423Z,42.33
2019-01-24T17:40:43.941Z,35.30
2019-01-24T17:43:14.559Z,36.60
2019-01-24T17:45:45.031Z,39.80
2019-01-24T17:48:15.543Z,33.50
2019-01-24T17:50:46.063Z,34.43
2019-01-24T17:53:16.542Z,35.80
2019-01-24T17:55:47.500Z,40.13
2019-01-24T17:58:18.082Z,40.53
2019-01-24T18:00:50.424Z,30.27
2019-01-24T18:03:20.990Z,33.67
2019-01-24T18:05:51.539Z,35.43
2019-01-24T18:08:22.006Z,42.57
2019-01-24T18:10:52.500Z,42.80
2019-01-24T18:13:22.978Z,57.00
2019-01-24T18:15:53.528Z,40.23
2019-01-24T18:18:23.998Z,34.20
2019-01-24T18:20:54.524Z,39.27
2019-01-24T18:23:24.997Z,41.57
2019-01-24T18:25:57.378Z,31.57
2019-01-24T18:28:27.886Z,37.47
2019-01-24T18:30:58.368Z,36.53
2019-01-24T18:33:28.933Z,40.50
2019-01-24T18:35:59.416Z,44.57
2019-01-24T18:38:29.918Z,79.70
2019-01-24T18:41:00.556Z,88.83
2019-01-24T18:43:32.062Z,41.53
2019-01-24T18:46:02.636Z,37.67
2019-01-24T18:48:33.208Z,41.47
2019-01-24T18:51:03.734Z,40.23
2019-01-24T18:53:34.308Z,38.10
2019-01-24T18:56:05.041Z,37.00
2019-01-24T18:58:35.617Z,45.70
2019-01-24T19:01:06.323Z,37.43
2019-01-24T19:03:36.828Z,32.30
2019-01-24T19:06:07.485Z,42.10
2019-01-24T19:08:37.993Z,46.90
2019-01-24T19:11:08.666Z,45.60
2019-01-24T19:13:39.130Z,40.20
2019-01-24T19:16:10.063Z,45.90
2019-01-24T19:18:40.585Z,41.10
2019-01-24T19:21:11.084Z,40.97
2019-01-24T19:23:41.550Z,37.97
2019-01-24T19:26:12.923Z,38.13
2019-01-24T19:28:43.431Z,37.47
2019-01-24T19:31:13.923Z,61.57
2019-01-24T19:33:44.397Z,40.67
2019-01-24T19:36:14.903Z,34.27
2019-01-24T19:38:45.473Z,36.67
2019-01-24T19:41:16.008Z,48.00
2019-01-24T19:43:46.502Z,45.57
2019-01-24T19:46:17.170Z,37.47
2019-01-24T19:48:47.648Z,42.67
2019-01-24T19:51:18.144Z,38.20
2019-01-24T19:53:48.711Z,38.53
2019-01-24T19:56:19.262Z,42.27
2019-01-24T19:58:49.775Z,35.57
2019-01-24T20:01:20.266Z,38.70
2019-01-24T20:03:50.800Z,40.77
2019-01-24T20:06:21.320Z,41.90
2019-01-24T20:08:51.906Z,39.33
2019-01-24T20:11:22.451Z,38.40
2019-01-24T20:13:53.016Z,39.60
2019-01-24T20:16:23.548Z,41.73
2019-01-24T20:18:54.088Z,40.47
2019-01-24T20:21:24.597Z,42.03
2019-01-24T20:23:55.070Z,36.60
2019-01-24T20:26:25.576Z,36.00
2019-01-24T20:28:56.090Z,43.77
2019-01-24T20:31:26.582Z,42.60
2019-01-24T20:33:57.071Z,39.50
2019-01-24T20:36:27.549Z,46.73
2019-01-24T20:38:58.059Z,61.43
2019-01-24T20:41:28.531Z,101.63
2019-01-24T20:43:59.051Z,57.83
2019-01-24T20:46:29.850Z,38.53
2019-01-24T20:49:00.370Z,37.93
2019-01-24T20:51:30.907Z,44.00
2019-01-24T20:54:01.441Z,45.73
2019-01-24T20:56:31.931Z,41.90
2019-01-24T20:59:02.409Z,44.33
2019-01-24T21:01:34.423Z,44.80
2019-01-24T21:04:05.061Z,38.53
2019-01-24T21:06:35.528Z,38.13
2019-01-24T21:09:14.474Z,45.17
2019-01-24T21:11:40.461Z,41.40
2019-01-24T21:14:11.041Z,42.03
2019-01-24T21:16:41.979Z,41.30
2019-01-24T21:19:12.502Z,51.00
2019-01-24T21:21:43.072Z,45.40
2019-01-24T21:24:13.681Z,41.40
2019-01-24T21:26:44.178Z,39.37
2019-01-24T21:29:14.680Z,39.33
2019-01-24T21:31:45.184Z,37.10
2019-01-24T21:34:15.738Z,44.40
2019-01-24T21:36:46.250Z,42.13
2019-01-24T21:39:22.146Z,34.20
2019-01-24T21:41:48.974Z,38.50
2019-01-24T21:44:19.442Z,43.33
2019-01-24T21:46:49.909Z,41.63
2019-01-24T21:49:20.429Z,43.07
2019-01-24T21:51:50.908Z,45.40
2019-01-24T21:54:21.420Z,40.03
2019-01-24T21:56:52.823Z,46.97
2019-01-24T21:59:23.334Z,48.53
2019-01-24T22:01:53.858Z,48.93
2019-01-24T22:04:24.341Z,47.57
2019-01-24T22:06:56.226Z,52.53
2019-01-24T22:09:29.202Z,53.80
2019-01-24T22:11:58.886Z,53.83
2019-01-24T22:14:29.374Z,79.67
2019-01-24T22:16:59.890Z,77.37
2019-01-24T22:19:30.361Z,58.53
2019-01-24T22:22:00.872Z,50.27
2019-01-24T22:24:31.339Z,46.63
2019-01-24T22:27:01.846Z,50.73
2019-01-24T22:29:32.326Z,46.57
2019-01-24T22:32:02.834Z,42.63
2019-01-24T22:34:34.377Z,42.93
2019-01-24T22:37:05.309Z,40.20
2019-01-24T22:39:36.694Z,40.73
2019-01-24T22:42:07.462Z,39.63
2019-01-24T22:44:39.827Z,48.17
2019-01-24T22:47:10.368Z,49.33
2019-01-24T22:49:40.866Z,60.47
2019-01-24T22:52:11.436Z,56.33
2019-01-24T22:54:41.906Z,56.00
2019-01-24T22:57:12.406Z,53.27
2019-01-24T22:59:42.873Z,49.90
2019-01-24T23:02:14.383Z,54.03
2019-01-24T23:04:45.554Z,54.10
2019-01-24T23:07:16.027Z,55.57
2019-01-24T23:09:46.515Z,44.30
2019-01-24T23:12:16.985Z,45.87
2019-01-24T23:14:47.482Z,50.60
2019-01-24T23:17:18.055Z,45.83
2019-01-24T23:19:48.560Z,51.53
2019-01-24T23:22:19.030Z,51.17
2019-01-24T23:24:49.605Z,44.87
2019-01-24T23:27:20.078Z,48.53
2019-01-24T23:29:52.121Z,40.80
2019-01-24T23:32:22.599Z,42.73
2019-01-24T23:34:53.122Z,38.80
2019-01-24T23:37:23.612Z,50.17
2019-01-24T23:39:54.215Z,43.90
2019-01-24T23:42:24.682Z,40.87
2019-01-24T23:44:55.198Z,44.47
2019-01-24T23:47:25.670Z,43.83
2019-01-24T23:49:56.159Z,50.90
2019-01-24T23:52:26.628Z,46.17
2019-01-24T23:54:57.143Z,35.47
2019-01-24T23:57:27.644Z,33.20
2019-01-24T23:59:58.109Z,47.77
